Lindenhurst, Illinois
Current Conditions -  °F | °C
As of 3:55 PM on Monday 26 Jan 2015 (Local Time) from KUGN Reporting Station
Haze Haze  
Wind Chill: 16°   Ceiling: 4000
Heat Index: 25°   Visibility: 6mi
Dew Point: 21°   Wind: 8mph
Humidity: 85%   Direction: 140°SE
Pressure: 29.86"   Gusts: NA
Location:  42.4132°N, 88.0615°W
Report Text: KUGN 262155Z 14007KT 6SM BR SCT015 BKN040 OVC050 M04/M06 A2986 RMK AO2 SNE50 SLP131 P0000 T10391061
Loading
Personal Weather Stations






























Interactive Weather Map New forecast layout! Learn more

10-Day Weather Forecast

Advertisements
Track Severe Weather on mobile